KNE105 OERK-OEJN
Flight info
| Callsign | KNE105 |
|---|---|
| Flight time | 1h 26m |
| Altitude | 34000 |
| Route | DURMA G782 VEMEM |
| Aircraft | A320/M-SDE3FGHIRWY/LB1 |
Departure
| Time | 2026-04-30 19:00 |
|---|---|
| Airport | King Khalid International Airport (OERK) |
Arrival
| Time | 2026-04-30 20:26 |
|---|---|
| Airport | King Abdulaziz International Airport (OEJN) |
| Time | Latitude | Longitude | Altitude | Speed | Heading |
|---|---|---|---|---|---|
| 2026-04-30 18:19 | 24.95886 | 46.70547 | 2033 ft | 0 kts | 264° |
| 2026-04-30 18:50 | 24.95888 | 46.70568 | 2035 ft | 4 kts | 264° |
| 2026-04-30 18:50 | 24.95891 | 46.70598 | 2030 ft | 4 kts | 265° |
| 2026-04-30 18:51 | 24.95894 | 46.70627 | 2037 ft | 4 kts | 265° |
| 2026-04-30 18:51 | 24.95896 | 46.70657 | 2030 ft | 4 kts | 266° |
| 2026-04-30 18:51 | 24.95898 | 46.70681 | 2034 ft | 1 kts | 266° |
| 2026-04-30 18:51 | 24.95898 | 46.70685 | 2030 ft | 0 kts | 266° |
| 2026-04-30 18:53 | 24.95898 | 46.70683 | 2030 ft | 2 kts | 269° |
| 2026-04-30 18:54 | 24.95922 | 46.70661 | 2032 ft | 8 kts | 319° |
| 2026-04-30 18:54 | 24.95983 | 46.70618 | 2030 ft | 10 kts | 330° |
| 2026-04-30 18:54 | 24.96040 | 46.70582 | 2030 ft | 9 kts | 329° |
| 2026-04-30 18:54 | 24.96114 | 46.70535 | 2037 ft | 16 kts | 330° |
| 2026-04-30 18:55 | 24.96211 | 46.70473 | 2038 ft | 17 kts | 330° |
| 2026-04-30 18:55 | 24.96427 | 46.70337 | 2040 ft | 19 kts | 330° |
| 2026-04-30 18:55 | 24.96547 | 46.70261 | 2036 ft | 21 kts | 330° |
| 2026-04-30 18:56 | 24.96808 | 46.70096 | 2033 ft | 21 kts | 329° |
| 2026-04-30 18:56 | 24.96915 | 46.70129 | 2039 ft | 18 kts | 58° |
| 2026-04-30 18:56 | 24.96983 | 46.70253 | 2031 ft | 19 kts | 52° |
| 2026-04-30 18:57 | 24.97212 | 46.70158 | 2032 ft | 20 kts | 329° |
| 2026-04-30 18:57 | 24.97337 | 46.70078 | 2034 ft | 21 kts | 330° |
| 2026-04-30 18:57 | 24.97469 | 46.69995 | 2037 ft | 22 kts | 330° |
| 2026-04-30 18:58 | 24.97632 | 46.70139 | 2033 ft | 19 kts | 75° |
| 2026-04-30 18:58 | 24.97598 | 46.70256 | 2029 ft | 12 kts | 142° |
| 2026-04-30 18:58 | 24.97581 | 46.70267 | 2034 ft | 0 kts | 149° |
| 2026-04-30 18:59 | 24.97186 | 46.70518 | 2034 ft | 93 kts | 150° |
| 2026-04-30 19:00 | 24.94335 | 46.72333 | 2773 ft | 181 kts | 147° |
| 2026-04-30 19:00 | 24.93242 | 46.73022 | 3317 ft | 182 kts | 147° |
| 2026-04-30 19:00 | 24.90834 | 46.74502 | 3677 ft | 214 kts | 155° |
| 2026-04-30 19:01 | 24.88043 | 46.73578 | 4303 ft | 233 kts | 236° |
| 2026-04-30 19:01 | 24.87287 | 46.72004 | 4673 ft | 232 kts | 247° |
| 2026-04-30 19:02 | 24.86389 | 46.68582 | 5385 ft | 234 kts | 257° |
| 2026-04-30 19:02 | 24.85621 | 46.65100 | 6079 ft | 235 kts | 256° |
| 2026-04-30 19:03 | 24.84864 | 46.61652 | 6933 ft | 228 kts | 256° |
| 2026-04-30 19:03 | 24.84135 | 46.58254 | 7705 ft | 228 kts | 256° |
| 2026-04-30 19:04 | 24.83414 | 46.54859 | 8390 ft | 228 kts | 256° |
| 2026-04-30 19:04 | 24.82695 | 46.51429 | 9059 ft | 231 kts | 256° |
| 2026-04-30 19:05 | 24.81987 | 46.47970 | 9759 ft | 232 kts | 256° |
| 2026-04-30 19:05 | 24.81256 | 46.44542 | 10628 ft | 233 kts | 248° |
| 2026-04-30 19:06 | 24.79331 | 46.41267 | 10998 ft | 278 kts | 238° |
| 2026-04-30 19:06 | 24.78284 | 46.39373 | 11213 ft | 302 kts | 239° |
| 2026-04-30 19:06 | 24.76027 | 46.35067 | 11593 ft | 345 kts | 240° |
| 2026-04-30 19:07 | 24.73607 | 46.30408 | 12918 ft | 353 kts | 240° |
| 2026-04-30 19:07 | 24.72382 | 46.28061 | 13658 ft | 355 kts | 240° |
| 2026-04-30 19:08 | 24.69912 | 46.23352 | 14989 ft | 359 kts | 240° |
| 2026-04-30 19:08 | 24.67380 | 46.18569 | 16231 ft | 364 kts | 240° |
| 2026-04-30 19:08 | 24.66096 | 46.16155 | 16839 ft | 367 kts | 240° |
| 2026-04-30 19:09 | 24.63513 | 46.11289 | 17975 ft | 371 kts | 240° |
| 2026-04-30 19:09 | 24.62214 | 46.08833 | 18521 ft | 372 kts | 240° |
| 2026-04-30 19:09 | 24.60908 | 46.06361 | 19026 ft | 375 kts | 240° |
| 2026-04-30 19:10 | 24.58285 | 46.01404 | 20040 ft | 379 kts | 240° |
| 2026-04-30 19:10 | 24.56052 | 45.97187 | 20845 ft | 383 kts | 240° |
| 2026-04-30 19:11 | 24.54267 | 45.93832 | 21459 ft | 386 kts | 240° |
| 2026-04-30 19:11 | 24.52007 | 45.89590 | 22189 ft | 389 kts | 240° |
| 2026-04-30 19:11 | 24.50639 | 45.87018 | 22648 ft | 391 kts | 240° |
| 2026-04-30 19:12 | 24.49263 | 45.84428 | 23081 ft | 393 kts | 240° |
| 2026-04-30 19:12 | 24.47882 | 45.81831 | 23500 ft | 395 kts | 240° |
| 2026-04-30 19:12 | 24.46490 | 45.79218 | 23904 ft | 397 kts | 240° |
| 2026-04-30 19:13 | 24.43788 | 45.73909 | 24668 ft | 400 kts | 243° |
| 2026-04-30 19:13 | 24.41358 | 45.68390 | 25425 ft | 403 kts | 245° |
| 2026-04-30 19:13 | 24.40178 | 45.65601 | 25828 ft | 404 kts | 245° |
| 2026-04-30 19:14 | 24.38987 | 45.62807 | 26204 ft | 405 kts | 245° |
| 2026-04-30 19:14 | 24.37777 | 45.60019 | 26568 ft | 405 kts | 245° |
| 2026-04-30 19:14 | 24.36548 | 45.57233 | 26914 ft | 406 kts | 244° |
| 2026-04-30 19:14 | 24.35307 | 45.54453 | 27247 ft | 407 kts | 244° |
| 2026-04-30 19:15 | 24.34058 | 45.51669 | 27557 ft | 407 kts | 244° |
| 2026-04-30 19:15 | 24.31550 | 45.46089 | 28148 ft | 409 kts | 244° |
| 2026-04-30 19:15 | 24.30292 | 45.43285 | 28447 ft | 410 kts | 245° |
| 2026-04-30 19:16 | 24.29039 | 45.40478 | 28732 ft | 410 kts | 245° |
| 2026-04-30 19:16 | 24.27784 | 45.37670 | 28986 ft | 411 kts | 245° |
| 2026-04-30 19:16 | 24.25279 | 45.32070 | 29505 ft | 412 kts | 245° |
| 2026-04-30 19:17 | 24.24020 | 45.29257 | 29864 ft | 410 kts | 245° |
| 2026-04-30 19:17 | 24.21525 | 45.23685 | 30569 ft | 404 kts | 245° |
| 2026-04-30 19:17 | 24.20281 | 45.20919 | 30853 ft | 405 kts | 244° |
| 2026-04-30 19:18 | 24.18203 | 45.16291 | 31343 ft | 404 kts | 244° |
| 2026-04-30 19:18 | 24.16563 | 45.12641 | 31719 ft | 403 kts | 244° |
| 2026-04-30 19:18 | 24.15323 | 45.09889 | 31991 ft | 403 kts | 244° |
| 2026-04-30 19:19 | 24.14085 | 45.07141 | 32277 ft | 402 kts | 244° |
| 2026-04-30 19:19 | 24.12848 | 45.04391 | 32558 ft | 402 kts | 244° |
| 2026-04-30 19:19 | 24.10376 | 44.98899 | 33071 ft | 402 kts | 244° |
| 2026-04-30 19:20 | 24.09134 | 44.96149 | 33327 ft | 403 kts | 244° |
| 2026-04-30 19:20 | 24.07890 | 44.93405 | 33610 ft | 402 kts | 244° |
| 2026-04-30 19:20 | 24.05411 | 44.87924 | 33987 ft | 402 kts | 244° |
| 2026-04-30 19:21 | 24.04172 | 44.85179 | 34008 ft | 402 kts | 243° |
| 2026-04-30 19:22 | 23.99207 | 44.74230 | 34008 ft | 401 kts | 244° |
| 2026-04-30 19:23 | 23.92139 | 44.57590 | 33999 ft | 406 kts | 255° |
| 2026-04-30 19:24 | 23.90230 | 44.48567 | 33998 ft | 406 kts | 255° |
| 2026-04-30 19:25 | 23.87020 | 44.33548 | 33998 ft | 405 kts | 255° |
| 2026-04-30 19:26 | 23.84442 | 44.21531 | 34005 ft | 406 kts | 255° |
| 2026-04-30 19:27 | 23.82504 | 44.12521 | 34006 ft | 406 kts | 255° |
| 2026-04-30 19:28 | 23.80559 | 44.03517 | 34009 ft | 406 kts | 255° |
| 2026-04-30 19:29 | 23.77972 | 43.91565 | 34007 ft | 406 kts | 255° |
| 2026-04-30 19:30 | 23.75353 | 43.79567 | 34012 ft | 406 kts | 255° |
| 2026-04-30 19:31 | 23.72709 | 43.67582 | 34011 ft | 406 kts | 255° |
| 2026-04-30 19:31 | 23.70735 | 43.58603 | 34014 ft | 406 kts | 255° |
| 2026-04-30 19:32 | 23.69408 | 43.52619 | 34014 ft | 405 kts | 255° |
| 2026-04-30 19:32 | 23.68090 | 43.46678 | 34006 ft | 405 kts | 255° |
| 2026-04-30 19:33 | 23.66762 | 43.40710 | 34012 ft | 405 kts | 255° |
| 2026-04-30 19:33 | 23.65435 | 43.34732 | 34006 ft | 405 kts | 255° |
| 2026-04-30 19:34 | 23.64103 | 43.28761 | 34003 ft | 405 kts | 254° |
| 2026-04-30 19:35 | 23.62105 | 43.19798 | 34002 ft | 405 kts | 254° |
| 2026-04-30 19:35 | 23.60770 | 43.13830 | 34003 ft | 405 kts | 254° |
| 2026-04-30 19:36 | 23.59430 | 43.07865 | 34005 ft | 405 kts | 254° |
| 2026-04-30 19:36 | 23.57421 | 42.98904 | 34005 ft | 406 kts | 254° |
| 2026-04-30 19:37 | 23.56083 | 42.92928 | 34011 ft | 406 kts | 254° |
| 2026-04-30 19:37 | 23.54734 | 42.86957 | 34015 ft | 406 kts | 254° |
| 2026-04-30 19:38 | 23.53373 | 42.80994 | 34017 ft | 405 kts | 254° |
| 2026-04-30 19:38 | 23.52017 | 42.75033 | 34021 ft | 404 kts | 254° |
| 2026-04-30 19:39 | 23.50666 | 42.69087 | 34014 ft | 404 kts | 254° |
| 2026-04-30 19:39 | 23.49326 | 42.63190 | 34010 ft | 403 kts | 254° |
| 2026-04-30 19:40 | 23.47978 | 42.57258 | 34012 ft | 404 kts | 254° |
| 2026-04-30 19:40 | 23.46625 | 42.51321 | 34022 ft | 403 kts | 254° |
| 2026-04-30 19:41 | 23.45262 | 42.45392 | 34027 ft | 403 kts | 254° |
| 2026-04-30 19:41 | 23.43908 | 42.39473 | 34027 ft | 403 kts | 254° |
| 2026-04-30 19:42 | 23.42555 | 42.33553 | 34029 ft | 403 kts | 254° |
| 2026-04-30 19:42 | 23.41199 | 42.27636 | 34028 ft | 403 kts | 254° |
| 2026-04-30 19:43 | 23.39839 | 42.21724 | 34033 ft | 403 kts | 254° |
| 2026-04-30 19:44 | 23.37789 | 42.12835 | 34037 ft | 404 kts | 254° |
| 2026-04-30 19:44 | 23.36417 | 42.06905 | 34044 ft | 404 kts | 254° |
| 2026-04-30 19:45 | 23.35038 | 42.00966 | 34048 ft | 404 kts | 254° |
| 2026-04-30 19:45 | 23.33673 | 41.95089 | 34056 ft | 403 kts | 254° |
| 2026-04-30 19:46 | 23.32298 | 41.89171 | 34060 ft | 403 kts | 254° |
| 2026-04-30 19:46 | 23.30922 | 41.83265 | 34060 ft | 402 kts | 254° |
| 2026-04-30 19:47 | 23.29541 | 41.77363 | 34052 ft | 402 kts | 254° |
| 2026-04-30 19:47 | 23.27894 | 41.71563 | 34050 ft | 401 kts | 244° |
| 2026-04-30 19:48 | 23.24977 | 41.66388 | 34050 ft | 402 kts | 238° |
| 2026-04-30 19:48 | 23.21962 | 41.61267 | 34048 ft | 403 kts | 238° |
| 2026-04-30 19:49 | 23.18955 | 41.56164 | 34053 ft | 403 kts | 238° |
| 2026-04-30 19:49 | 23.14409 | 41.48482 | 34065 ft | 403 kts | 238° |
| 2026-04-30 19:50 | 23.11375 | 41.43358 | 34067 ft | 403 kts | 238° |
| 2026-04-30 19:50 | 23.08333 | 41.38229 | 34071 ft | 404 kts | 238° |
| 2026-04-30 19:51 | 23.05283 | 41.33102 | 34078 ft | 404 kts | 238° |
| 2026-04-30 19:51 | 23.02233 | 41.27967 | 34084 ft | 404 kts | 238° |
| 2026-04-30 19:52 | 22.99176 | 41.22833 | 34088 ft | 405 kts | 238° |
| 2026-04-30 19:52 | 22.96139 | 41.17735 | 34092 ft | 405 kts | 238° |
| 2026-04-30 19:53 | 22.93081 | 41.12598 | 34099 ft | 406 kts | 238° |
| 2026-04-30 19:53 | 22.90015 | 41.07461 | 34102 ft | 405 kts | 238° |
| 2026-04-30 19:54 | 22.86948 | 41.02335 | 34102 ft | 405 kts | 238° |
| 2026-04-30 19:54 | 22.83880 | 40.97204 | 34103 ft | 405 kts | 238° |
| 2026-04-30 19:55 | 22.80811 | 40.92072 | 34106 ft | 406 kts | 238° |
| 2026-04-30 19:55 | 22.77732 | 40.86933 | 34108 ft | 407 kts | 238° |
| 2026-04-30 19:56 | 22.74665 | 40.81825 | 34109 ft | 407 kts | 238° |
| 2026-04-30 19:56 | 22.71574 | 40.76687 | 34115 ft | 407 kts | 238° |
| 2026-04-30 19:57 | 22.68483 | 40.71552 | 34121 ft | 407 kts | 238° |
| 2026-04-30 19:57 | 22.65399 | 40.66423 | 34122 ft | 406 kts | 238° |
| 2026-04-30 19:58 | 22.62316 | 40.61301 | 34117 ft | 406 kts | 238° |
| 2026-04-30 19:58 | 22.59230 | 40.56179 | 34018 ft | 408 kts | 238° |
| 2026-04-30 19:59 | 22.57673 | 40.53599 | 33040 ft | 409 kts | 238° |
| 2026-04-30 19:59 | 22.56127 | 40.51037 | 32130 ft | 403 kts | 238° |
| 2026-04-30 19:59 | 22.53059 | 40.45961 | 30237 ft | 406 kts | 239° |
| 2026-04-30 20:00 | 22.51512 | 40.43401 | 29269 ft | 408 kts | 239° |
| 2026-04-30 20:00 | 22.49951 | 40.40820 | 28226 ft | 412 kts | 239° |
| 2026-04-30 20:00 | 22.48375 | 40.38213 | 27132 ft | 416 kts | 239° |
| 2026-04-30 20:00 | 22.47322 | 40.36473 | 26556 ft | 417 kts | 239° |
| 2026-04-30 20:01 | 22.44184 | 40.31294 | 25184 ft | 409 kts | 239° |
| 2026-04-30 20:01 | 22.42629 | 40.28735 | 24465 ft | 406 kts | 239° |
| 2026-04-30 20:01 | 22.41088 | 40.26196 | 23762 ft | 403 kts | 239° |
| 2026-04-30 20:02 | 22.38031 | 40.21161 | 22423 ft | 398 kts | 239° |
| 2026-04-30 20:02 | 22.36515 | 40.18671 | 21776 ft | 395 kts | 239° |
| 2026-04-30 20:03 | 22.33518 | 40.13746 | 20518 ft | 390 kts | 238° |
| 2026-04-30 20:03 | 22.32035 | 40.11305 | 19921 ft | 387 kts | 238° |
| 2026-04-30 20:03 | 22.30563 | 40.08889 | 19329 ft | 383 kts | 238° |
| 2026-04-30 20:03 | 22.29105 | 40.06498 | 18791 ft | 379 kts | 238° |
| 2026-04-30 20:04 | 22.27660 | 40.04132 | 18238 ft | 376 kts | 238° |
| 2026-04-30 20:04 | 22.26250 | 40.01817 | 17967 ft | 357 kts | 238° |
| 2026-04-30 20:04 | 22.24959 | 39.99690 | 17840 ft | 331 kts | 238° |
| 2026-04-30 20:05 | 22.22533 | 39.95716 | 17167 ft | 310 kts | 238° |
| 2026-04-30 20:05 | 22.21355 | 39.93784 | 16913 ft | 307 kts | 237° |
| 2026-04-30 20:05 | 22.19013 | 39.89953 | 17035 ft | 307 kts | 238° |
| 2026-04-30 20:06 | 22.17838 | 39.88028 | 17031 ft | 307 kts | 238° |
| 2026-04-30 20:06 | 22.16664 | 39.86103 | 16982 ft | 308 kts | 237° |
| 2026-04-30 20:06 | 22.15490 | 39.84177 | 16863 ft | 307 kts | 238° |
| 2026-04-30 20:06 | 22.14317 | 39.82254 | 16757 ft | 306 kts | 238° |
| 2026-04-30 20:07 | 22.13144 | 39.80334 | 16650 ft | 306 kts | 238° |
| 2026-04-30 20:07 | 22.11974 | 39.78420 | 16551 ft | 305 kts | 238° |
| 2026-04-30 20:07 | 22.09635 | 39.74601 | 16335 ft | 305 kts | 237° |
| 2026-04-30 20:08 | 22.08465 | 39.72697 | 16223 ft | 305 kts | 237° |
| 2026-04-30 20:08 | 22.07295 | 39.70794 | 16126 ft | 304 kts | 237° |
| 2026-04-30 20:08 | 22.06126 | 39.68892 | 16022 ft | 304 kts | 237° |
| 2026-04-30 20:08 | 22.04961 | 39.66994 | 15904 ft | 303 kts | 237° |
| 2026-04-30 20:09 | 22.03800 | 39.65102 | 15804 ft | 302 kts | 237° |
| 2026-04-30 20:09 | 22.02640 | 39.63210 | 15703 ft | 302 kts | 237° |
| 2026-04-30 20:09 | 22.00329 | 39.59458 | 15495 ft | 302 kts | 237° |
| 2026-04-30 20:10 | 21.98007 | 39.55682 | 15282 ft | 302 kts | 237° |
| 2026-04-30 20:10 | 21.96848 | 39.53799 | 15175 ft | 301 kts | 237° |
| 2026-04-30 20:10 | 21.95696 | 39.51920 | 15078 ft | 301 kts | 237° |
| 2026-04-30 20:11 | 21.93565 | 39.48036 | 14613 ft | 304 kts | 244° |
| 2026-04-30 20:11 | 21.92647 | 39.45985 | 14246 ft | 303 kts | 245° |
| 2026-04-30 20:11 | 21.91745 | 39.43947 | 13897 ft | 301 kts | 245° |
| 2026-04-30 20:12 | 21.89953 | 39.39908 | 12757 ft | 298 kts | 244° |
| 2026-04-30 20:12 | 21.89055 | 39.37888 | 12402 ft | 297 kts | 244° |
| 2026-04-30 20:12 | 21.88176 | 39.35910 | 12059 ft | 296 kts | 244° |
| 2026-04-30 20:13 | 21.87293 | 39.33923 | 11619 ft | 293 kts | 244° |
| 2026-04-30 20:13 | 21.86410 | 39.31943 | 11143 ft | 293 kts | 244° |
| 2026-04-30 20:13 | 21.85538 | 39.29989 | 10968 ft | 283 kts | 244° |
| 2026-04-30 20:13 | 21.84708 | 39.28127 | 10624 ft | 271 kts | 244° |
| 2026-04-30 20:14 | 21.83898 | 39.26314 | 10082 ft | 268 kts | 244° |
| 2026-04-30 20:14 | 21.83071 | 39.24508 | 9420 ft | 274 kts | 239° |
| 2026-04-30 20:14 | 21.81744 | 39.23093 | 9062 ft | 266 kts | 207° |
| 2026-04-30 20:14 | 21.79998 | 39.22651 | 8723 ft | 259 kts | 176° |
| 2026-04-30 20:15 | 21.78277 | 39.23148 | 8331 ft | 257 kts | 162° |
| 2026-04-30 20:15 | 21.76599 | 39.23813 | 7942 ft | 256 kts | 162° |
| 2026-04-30 20:15 | 21.74928 | 39.24475 | 7572 ft | 256 kts | 162° |
| 2026-04-30 20:15 | 21.73255 | 39.25129 | 7185 ft | 253 kts | 162° |
| 2026-04-30 20:16 | 21.71627 | 39.25775 | 6830 ft | 246 kts | 162° |
| 2026-04-30 20:16 | 21.70044 | 39.26407 | 6496 ft | 239 kts | 162° |
| 2026-04-30 20:16 | 21.68508 | 39.27018 | 6172 ft | 233 kts | 162° |
| 2026-04-30 20:16 | 21.66998 | 39.27614 | 5845 ft | 228 kts | 162° |
| 2026-04-30 20:17 | 21.65525 | 39.28196 | 5543 ft | 223 kts | 162° |
| 2026-04-30 20:17 | 21.64106 | 39.28752 | 5238 ft | 219 kts | 162° |
| 2026-04-30 20:17 | 21.62663 | 39.29318 | 4929 ft | 217 kts | 162° |
| 2026-04-30 20:17 | 21.61237 | 39.29877 | 4616 ft | 219 kts | 161° |
| 2026-04-30 20:18 | 21.59817 | 39.30435 | 4318 ft | 221 kts | 162° |
| 2026-04-30 20:18 | 21.58384 | 39.30996 | 4000 ft | 216 kts | 162° |
| 2026-04-30 20:18 | 21.56959 | 39.31552 | 3727 ft | 219 kts | 161° |
| 2026-04-30 20:18 | 21.55524 | 39.32116 | 3414 ft | 219 kts | 162° |
| 2026-04-30 20:19 | 21.54097 | 39.32673 | 3117 ft | 216 kts | 162° |
| 2026-04-30 20:19 | 21.52686 | 39.33064 | 2938 ft | 204 kts | 181° |
| 2026-04-30 20:19 | 21.51333 | 39.32793 | 2898 ft | 196 kts | 208° |
| 2026-04-30 20:19 | 21.50280 | 39.31921 | 2853 ft | 191 kts | 235° |
| 2026-04-30 20:20 | 21.49716 | 39.30670 | 2812 ft | 185 kts | 260° |
| 2026-04-30 20:20 | 21.49712 | 39.29301 | 2771 ft | 184 kts | 283° |
| 2026-04-30 20:20 | 21.49983 | 39.27942 | 2736 ft | 186 kts | 283° |
| 2026-04-30 20:20 | 21.50247 | 39.26582 | 2699 ft | 186 kts | 283° |
| 2026-04-30 20:21 | 21.50689 | 39.25288 | 2657 ft | 185 kts | 301° |
| 2026-04-30 20:21 | 21.51522 | 39.24233 | 2618 ft | 186 kts | 321° |
| 2026-04-30 20:21 | 21.52645 | 39.23565 | 2602 ft | 181 kts | 338° |
| 2026-04-30 20:21 | 21.53789 | 39.23120 | 2550 ft | 166 kts | 338° |
| 2026-04-30 20:22 | 21.54847 | 39.22704 | 2449 ft | 159 kts | 339° |
| 2026-04-30 20:22 | 21.55858 | 39.22304 | 2307 ft | 151 kts | 339° |
| 2026-04-30 20:22 | 21.56817 | 39.21928 | 2125 ft | 144 kts | 339° |
| 2026-04-30 20:22 | 21.57745 | 39.21562 | 1929 ft | 139 kts | 340° |
| 2026-04-30 20:23 | 21.58631 | 39.21214 | 1748 ft | 133 kts | 339° |
| 2026-04-30 20:23 | 21.59487 | 39.20875 | 1564 ft | 130 kts | 340° |
| 2026-04-30 20:23 | 21.60336 | 39.20540 | 1406 ft | 130 kts | 340° |
| 2026-04-30 20:23 | 21.61182 | 39.20206 | 1230 ft | 129 kts | 340° |
| 2026-04-30 20:24 | 21.62026 | 39.19875 | 1070 ft | 129 kts | 340° |
| 2026-04-30 20:24 | 21.62855 | 39.19547 | 894 ft | 128 kts | 341° |
| 2026-04-30 20:24 | 21.63694 | 39.19217 | 726 ft | 128 kts | 340° |
| 2026-04-30 20:24 | 21.64532 | 39.18886 | 558 ft | 128 kts | 340° |
| 2026-04-30 20:25 | 21.66207 | 39.18227 | 201 ft | 129 kts | 340° |
| 2026-04-30 20:25 | 21.67045 | 39.17897 | 37 ft | 122 kts | 340° |
| 2026-04-30 20:26 | 21.68023 | 39.17509 | 31 ft | 26 kts | 340° |
| 2026-04-30 20:26 | 21.68282 | 39.17369 | 27 ft | 23 kts | 315° |
| 2026-04-30 20:26 | 21.68394 | 39.17235 | 30 ft | 25 kts | 309° |
| 2026-04-30 20:27 | 21.68445 | 39.17008 | 29 ft | 17 kts | 172° |
| 2026-04-30 20:27 | 21.68247 | 39.17087 | 29 ft | 14 kts | 161° |
| 2026-04-30 20:28 | 21.68105 | 39.17138 | 31 ft | 0 kts | 158° |
| 2026-04-30 20:30 | 21.68068 | 39.17154 | 30 ft | 9 kts | 159° |
| 2026-04-30 20:30 | 21.67918 | 39.17018 | 30 ft | 18 kts | 250° |
| 2026-04-30 20:31 | 21.67778 | 39.16610 | 30 ft | 14 kts | 252° |
| 2026-04-30 20:32 | 21.67697 | 39.16378 | 30 ft | 11 kts | 249° |
| 2026-04-30 20:32 | 21.67589 | 39.16209 | 30 ft | 15 kts | 165° |
| 2026-04-30 20:33 | 21.67492 | 39.16247 | 30 ft | 18 kts | 160° |
| 2026-04-30 20:33 | 21.67193 | 39.16363 | 31 ft | 25 kts | 161° |
| 2026-04-30 20:33 | 21.67025 | 39.16428 | 31 ft | 26 kts | 159° |
| 2026-04-30 20:34 | 21.66898 | 39.16614 | 31 ft | 18 kts | 96° |
| 2026-04-30 20:34 | 21.66841 | 39.16810 | 30 ft | 9 kts | 123° |
| 2026-04-30 20:35 | 21.66833 | 39.16823 | 30 ft | 0 kts | 124° |
| 2026-04-30 20:35 | 21.66819 | 39.16845 | 30 ft | 12 kts | 127° |
| 2026-04-30 20:35 | 21.66697 | 39.16919 | 30 ft | 6 kts | 141° |
| 2026-04-30 20:36 | 21.66698 | 39.16952 | 30 ft | 4 kts | 66° |
| 2026-04-30 20:36 | 21.66708 | 39.16978 | 30 ft | 3 kts | 69° |
| 2026-04-30 20:36 | 21.66721 | 39.17014 | 30 ft | 2 kts | 70° |
| 2026-04-30 20:37 | 21.66724 | 39.17025 | 30 ft | 1 kts | 69° |
| 2026-04-30 20:37 | 21.66725 | 39.17028 | 30 ft | 0 kts | 69° |